Time,TemperatureF,DewpointF,PressureIn,WindDirection,WindDirectionDegrees,WindSpeedMPH,WindSpeedGustMPH,Humidity,HourlyPrecipIn,Conditions,Clouds,dailyrainin,SoftwareType,DateUTC
2013-06-22 00:00:00,77.4,72.5,30.14,SE,145,9.0,9.0,85,0.00,,,0.00,Wunderground v.1.15,2013-06-22 04:00:00,
2013-06-22 00:05:00,77.4,72.9,30.14,ESE,117,10.0,10.0,86,0.00,,,0.00,Wunderground v.1.15,2013-06-22 04:05:00,
2013-06-22 00:10:00,77.2,72.3,30.13,ESE,117,11.0,14.0,85,0.00,,,0.00,Wunderground v.1.15,2013-06-22 04:10:00,
2013-06-22 00:15:00,77.0,72.1,30.14,ESE,105,12.0,14.0,85,0.00,,,0.00,Wunderground v.1.15,2013-06-22 04:15:00,
2013-06-22 00:20:00,76.8,71.9,30.13,ESE,117,11.0,14.0,85,0.00,,,0.00,Wunderground v.1.15,2013-06-22 04:20:00,
2013-06-22 00:25:00,76.6,71.7,30.13,NE,41,10.0,14.0,85,0.00,,,0.00,Wunderground v.1.15,2013-06-22 04:25:00,
2013-06-22 00:30:00,76.5,71.7,30.13,ENE,77,8.0,8.0,85,0.00,,,0.00,Wunderground v.1.15,2013-06-22 04:30:00,
2013-06-22 00:35:00,76.4,71.6,30.13,ENE,60,7.0,14.0,85,0.00,,,0.00,Wunderground v.1.15,2013-06-22 04:35:00,
2013-06-22 00:40:00,76.4,71.6,30.13,SE,131,7.0,7.0,85,0.00,,,0.00,Wunderground v.1.15,2013-06-22 04:40:00,
2013-06-22 00:45:00,76.4,71.2,30.13,ENE,62,6.0,14.0,84,0.00,,,0.00,Wunderground v.1.15,2013-06-22 04:45:00,
2013-06-22 00:50:00,76.6,71.4,30.13,ENE,72,6.0,14.0,84,0.00,,,0.00,Wunderground v.1.15,2013-06-22 04:50:00,
2013-06-22 00:55:00,76.8,71.6,30.13,East,97,7.0,14.0,84,0.00,,,0.00,Wunderground v.1.15,2013-06-22 04:55:00,
2013-06-22 01:00:00,76.8,71.9,30.14,NNE,17,7.0,18.0,85,0.00,,,0.00,Wunderground v.1.15,2013-06-22 05:00:00,
2013-06-22 01:10:00,76.8,72.3,30.13,East,80,7.0,7.0,86,0.00,,,0.00,Wunderground v.1.15,2013-06-22 05:10:00,
2013-06-22 01:15:00,76.3,71.8,30.13,SSE,150,9.0,12.0,86,0.00,,,0.00,Wunderground v.1.15,2013-06-22 05:15:00,
2013-06-22 01:25:00,75.5,71.0,30.12,SSE,153,12.0,18.0,86,0.00,,,0.00,Wunderground v.1.15,2013-06-22 05:25:00,
2013-06-22 01:30:00,75.2,70.7,30.12,SSE,160,12.0,12.0,86,0.00,,,0.00,Wunderground v.1.15,2013-06-22 05:30:00,
2013-06-22 01:35:00,75.1,71.0,30.11,SE,141,10.0,18.0,87,0.00,,,0.00,Wunderground v.1.15,2013-06-22 05:35:00,
2013-06-22 01:40:00,75.1,71.0,30.12,East,91,9.0,9.0,87,0.00,,,0.00,Wunderground v.1.15,2013-06-22 05:40:00,
2013-06-22 01:45:00,74.9,70.8,30.12,SE,146,9.0,14.0,87,0.00,,,0.00,Wunderground v.1.15,2013-06-22 05:45:00,
2013-06-22 01:50:00,74.9,70.4,30.12,East,101,10.0,10.0,86,0.00,,,0.00,Wunderground v.1.15,2013-06-22 05:50:00,
2013-06-22 01:55:00,74.8,70.7,30.12,ESE,118,11.0,11.0,87,0.00,,,0.00,Wunderground v.1.15,2013-06-22 05:55:00,
2013-06-22 02:00:00,74.5,70.7,30.12,SE,137,13.0,19.0,88,0.00,,,0.00,Wunderground v.1.15,2013-06-22 06:00:00,
2013-06-22 02:10:00,73.6,69.8,30.12,SE,145,16.0,16.0,88,0.11,,,0.02,Wunderground v.1.15,2013-06-22 06:10:00,
2013-06-22 02:15:00,73.4,69.6,30.12,SSE,150,16.0,20.0,88,0.19,,,0.04,Wunderground v.1.15,2013-06-22 06:15:00,
2013-06-22 02:20:00,73.4,70.0,30.11,SE,136,14.0,19.0,89,0.22,,,0.05,Wunderground v.1.15,2013-06-22 06:20:00,
2013-06-22 02:25:00,73.5,70.1,30.11,SE,129,12.0,19.0,89,0.21,,,0.07,Wunderground v.1.15,2013-06-22 06:25:00,
2013-06-22 02:30:00,73.3,69.9,30.11,SSE,150,12.0,12.0,89,0.28,,,0.09,Wunderground v.1.15,2013-06-22 06:30:00,
2013-06-22 02:35:00,73.2,69.8,30.11,SE,136,11.0,19.0,89,0.19,,,0.11,Wunderground v.1.15,2013-06-22 06:35:00,
2013-06-22 02:40:00,73.3,69.9,30.11,SE,133,11.0,11.0,89,0.17,,,0.12,Wunderground v.1.15,2013-06-22 06:40:00,
2013-06-22 02:45:00,73.4,70.3,30.11,ESE,120,12.0,12.0,90,0.15,,,0.13,Wunderground v.1.15,2013-06-22 06:45:00,
2013-06-22 02:50:00,73.6,70.5,30.11,SE,129,12.0,12.0,90,0.16,,,0.15,Wunderground v.1.15,2013-06-22 06:50:00,
2013-06-22 02:55:00,73.3,70.2,30.11,ESE,117,12.0,13.0,90,0.28,,,0.17,Wunderground v.1.15,2013-06-22 06:55:00,
2013-06-22 03:00:00,72.8,69.7,30.11,East,98,12.0,24.0,90,0.29,,,0.20,Wunderground v.1.15,2013-06-22 07:00:00,
2013-06-22 03:05:00,72.7,69.6,30.11,SE,131,12.0,24.0,90,0.32,,,0.22,Wunderground v.1.15,2013-06-22 07:05:00,
2013-06-22 03:10:00,72.8,69.7,30.11,SE,133,10.0,10.0,90,0.33,,,0.25,Wunderground v.1.15,2013-06-22 07:10:00,
2013-06-22 03:15:00,72.7,69.6,30.11,SE,131,9.0,24.0,90,0.31,,,0.27,Wunderground v.1.15,2013-06-22 07:15:00,
2013-06-22 03:20:00,72.7,69.6,30.11,SE,131,8.0,24.0,90,0.23,,,0.30,Wunderground v.1.15,2013-06-22 07:20:00,
2013-06-22 03:25:00,72.6,69.5,30.10,SE,136,9.0,24.0,90,0.16,,,0.31,Wunderground v.1.15,2013-06-22 07:25:00,
2013-06-22 03:30:00,72.8,69.7,30.10,SE,127,10.0,10.0,90,0.10,,,0.32,Wunderground v.1.15,2013-06-22 07:30:00,
2013-06-22 03:35:00,73.1,70.0,30.10,SE,133,11.0,12.0,90,0.11,,,0.33,Wunderground v.1.15,2013-06-22 07:35:00,
2013-06-22 03:40:00,73.3,70.5,30.10,SE,138,12.0,24.0,91,0.11,,,0.33,Wunderground v.1.15,2013-06-22 07:40:00,
2013-06-22 03:45:00,73.4,70.3,30.10,SE,124,13.0,24.0,90,0.06,,,0.33,Wunderground v.1.15,2013-06-22 07:45:00,
2013-06-22 03:50:00,73.9,71.1,30.10,SSE,148,12.0,24.0,91,0.04,,,0.33,Wunderground v.1.15,2013-06-22 07:50:00,
2013-06-22 03:55:00,73.7,70.6,30.09,SSW,193,13.0,24.0,90,0.04,,,0.34,Wunderground v.1.15,2013-06-22 07:55:00,
2013-06-22 04:00:00,73.5,70.1,30.09,South,187,15.0,18.0,89,0.04,,,0.34,Wunderground v.1.15,2013-06-22 08:00:00,
2013-06-22 04:05:00,73.1,69.7,30.09,East,101,15.0,18.0,89,0.04,,,0.34,Wunderground v.1.15,2013-06-22 08:05:00,
2013-06-22 04:10:00,73.0,69.9,30.09,SE,128,13.0,18.0,90,0.04,,,0.35,Wunderground v.1.15,2013-06-22 08:10:00,
2013-06-22 04:15:00,73.1,70.0,30.10,ESE,118,13.0,18.0,90,0.21,,,0.37,Wunderground v.1.15,2013-06-22 08:15:00,
2013-06-22 04:25:00,73.1,70.0,30.10,SE,143,13.0,18.0,90,0.09,,,0.38,Wunderground v.1.15,2013-06-22 08:25:00,
2013-06-22 04:30:00,73.1,70.3,30.10,East,96,13.0,13.0,91,0.05,,,0.38,Wunderground v.1.15,2013-06-22 08:30:00,
2013-06-22 04:35:00,73.2,70.7,30.10,East,99,11.0,18.0,92,0.04,,,0.38,Wunderground v.1.15,2013-06-22 08:35:00,
2013-06-22 04:40:00,73.1,70.6,30.10,ESE,102,11.0,18.0,92,0.00,,,0.39,Wunderground v.1.15,2013-06-22 08:40:00,
2013-06-22 04:45:00,72.4,69.6,30.10,SSE,163,11.0,18.0,91,0.15,,,0.41,Wunderground v.1.15,2013-06-22 08:45:00,
2013-06-22 04:50:00,72.7,70.2,30.10,SE,125,11.0,18.0,92,0.19,,,0.43,Wunderground v.1.15,2013-06-22 08:50:00,
2013-06-22 04:55:00,72.9,70.4,30.10,SSE,158,11.0,18.0,92,0.15,,,0.45,Wunderground v.1.15,2013-06-22 08:55:00,
2013-06-22 05:00:00,72.9,70.4,30.10,SE,135,13.0,13.0,92,0.16,,,0.46,Wunderground v.1.15,2013-06-22 09:00:00,
2013-06-22 05:10:00,73.2,70.7,30.10,SSE,150,15.0,22.0,92,0.04,,,0.46,Wunderground v.1.15,2013-06-22 09:10:00,
2013-06-22 05:15:00,72.6,69.8,30.11,SE,135,16.0,22.0,91,0.00,,,0.46,Wunderground v.1.15,2013-06-22 09:15:00,
2013-06-22 05:20:00,72.5,70.0,30.11,SE,125,15.0,15.0,92,0.00,,,0.46,Wunderground v.1.15,2013-06-22 09:20:00,
2013-06-22 05:25:00,72.7,70.2,30.11,SE,141,13.0,20.0,92,0.00,,,0.46,Wunderground v.1.15,2013-06-22 09:25:00,
2013-06-22 05:30:00,72.0,69.5,30.11,SE,131,13.0,22.0,92,0.00,,,0.46,Wunderground v.1.15,2013-06-22 09:30:00,
2013-06-22 05:35:00,71.9,69.4,30.11,SE,135,13.0,22.0,92,0.00,,,0.46,Wunderground v.1.15,2013-06-22 09:35:00,
2013-06-22 05:40:00,71.3,68.9,30.11,SSW,194,14.0,14.0,92,0.00,,,0.46,Wunderground v.1.15,2013-06-22 09:40:00,
2013-06-22 05:45:00,71.2,68.8,30.11,South,186,14.0,17.0,92,0.00,,,0.46,Wunderground v.1.15,2013-06-22 09:45:00,
2013-06-22 05:50:00,71.7,69.6,30.11,SE,133,13.0,13.0,93,0.00,,,0.46,Wunderground v.1.15,2013-06-22 09:50:00,
2013-06-22 05:55:00,72.2,70.1,30.11,SE,145,13.0,22.0,93,0.00,,,0.47,Wunderground v.1.15,2013-06-22 09:55:00,
2013-06-22 06:00:00,71.6,69.2,30.11,SE,133,12.0,25.0,92,0.00,,,0.47,Wunderground v.1.15,2013-06-22 10:00:00,
2013-06-22 06:05:00,71.6,69.2,30.11,SE,131,13.0,25.0,92,0.00,,,0.47,Wunderground v.1.15,2013-06-22 10:05:00,
2013-06-22 06:10:00,71.5,69.1,30.11,South,176,13.0,25.0,92,0.00,,,0.47,Wunderground v.1.15,2013-06-22 10:10:00,
2013-06-22 06:15:00,71.6,69.2,30.11,SSW,211,13.0,25.0,92,0.00,,,0.47,Wunderground v.1.15,2013-06-22 10:15:00,
2013-06-22 06:20:00,71.8,69.7,30.11,SSE,163,11.0,25.0,93,0.00,,,0.47,Wunderground v.1.15,2013-06-22 10:20:00,
2013-06-22 06:25:00,72.1,70.0,30.11,SSE,159,11.0,25.0,93,0.00,,,0.47,Wunderground v.1.15,2013-06-22 10:25:00,
2013-06-22 06:30:00,72.1,70.0,30.12,SE,135,12.0,25.0,93,0.00,,,0.47,Wunderground v.1.15,2013-06-22 10:30:00,
2013-06-22 06:35:00,72.0,69.5,30.11,South,169,13.0,25.0,92,0.00,,,0.47,Wunderground v.1.15,2013-06-22 10:35:00,
2013-06-22 06:40:00,72.0,69.5,30.12,SE,134,13.0,25.0,92,0.00,,,0.47,Wunderground v.1.15,2013-06-22 10:40:00,
2013-06-22 06:45:00,72.0,69.9,30.12,East,79,13.0,25.0,93,0.00,,,0.47,Wunderground v.1.15,2013-06-22 10:45:00,
2013-06-22 06:50:00,72.1,70.0,30.12,SW,233,12.0,25.0,93,0.00,,,0.47,Wunderground v.1.15,2013-06-22 10:50:00,
2013-06-22 07:00:00,72.1,70.0,30.12,SSE,148,12.0,24.0,93,0.00,,,0.47,Wunderground v.1.15,2013-06-22 11:00:00,
2013-06-22 07:05:00,71.9,69.4,30.12,East,92,12.0,24.0,92,0.00,,,0.47,Wunderground v.1.15,2013-06-22 11:05:00,
2013-06-22 07:10:00,71.7,69.3,30.12,SE,129,11.0,11.0,92,0.00,,,0.47,Wunderground v.1.15,2013-06-22 11:10:00,
2013-06-22 07:15:00,71.5,69.1,30.12,East,86,10.0,24.0,92,0.00,,,0.47,Wunderground v.1.15,2013-06-22 11:15:00,
2013-06-22 07:20:00,71.6,69.5,30.12,SSW,208,10.0,10.0,93,0.00,,,0.47,Wunderground v.1.15,2013-06-22 11:20:00,
2013-06-22 07:25:00,71.4,69.0,30.12,SSE,166,9.0,24.0,92,0.00,,,0.47,Wunderground v.1.15,2013-06-22 11:25:00,
2013-06-22 07:30:00,71.2,68.8,30.12,SSE,154,9.0,9.0,92,0.00,,,0.47,Wunderground v.1.15,2013-06-22 11:30:00,
2013-06-22 07:35:00,71.2,68.8,30.13,East,101,8.0,24.0,92,0.00,,,0.47,Wunderground v.1.15,2013-06-22 11:35:00,
2013-06-22 07:40:00,71.5,69.4,30.12,SE,145,8.0,24.0,93,0.00,,,0.47,Wunderground v.1.15,2013-06-22 11:40:00,
2013-06-22 07:45:00,71.7,69.6,30.13,SE,133,9.0,24.0,93,0.00,,,0.48,Wunderground v.1.15,2013-06-22 11:45:00,
2013-06-22 07:50:00,71.9,69.8,30.12,SSE,150,10.0,24.0,93,0.00,,,0.48,Wunderground v.1.15,2013-06-22 11:50:00,
2013-06-22 07:55:00,71.9,69.8,30.13,SE,129,11.0,24.0,93,0.00,,,0.48,Wunderground v.1.15,2013-06-22 11:55:00,
2013-06-22 08:00:00,72.3,70.2,30.13,SW,215,11.0,11.0,93,0.00,,,0.48,Wunderground v.1.15,2013-06-22 12:00:00,
2013-06-22 08:10:00,72.6,70.5,30.13,SSE,160,10.0,20.0,93,0.00,,,0.48,Wunderground v.1.15,2013-06-22 12:10:00,
2013-06-22 08:15:00,72.3,70.2,30.13,SSE,158,11.0,20.0,93,0.00,,,0.48,Wunderground v.1.15,2013-06-22 12:15:00,
2013-06-22 08:20:00,72.8,70.7,30.13,SE,135,12.0,12.0,93,0.00,,,0.48,Wunderground v.1.15,2013-06-22 12:20:00,
2013-06-22 08:25:00,72.9,70.8,30.13,South,174,13.0,14.0,93,0.00,,,0.48,Wunderground v.1.15,2013-06-22 12:25:00,
2013-06-22 08:30:00,72.7,70.6,30.13,South,173,13.0,13.0,93,0.00,,,0.48,Wunderground v.1.15,2013-06-22 12:30:00,
2013-06-22 08:35:00,73.0,70.9,30.13,SE,127,12.0,20.0,93,0.00,,,0.48,Wunderground v.1.15,2013-06-22 12:35:00,
2013-06-22 08:40:00,73.1,71.0,30.13,South,169,11.0,20.0,93,0.00,,,0.48,Wunderground v.1.15,2013-06-22 12:40:00,
2013-06-22 08:45:00,72.8,70.3,30.13,SE,129,10.0,20.0,92,0.00,,,0.48,Wunderground v.1.15,2013-06-22 12:45:00,
2013-06-22 08:50:00,73.0,70.5,30.13,SE,129,10.0,20.0,92,0.00,,,0.48,Wunderground v.1.15,2013-06-22 12:50:00,
2013-06-22 08:55:00,73.1,70.6,30.13,South,183,11.0,20.0,92,0.00,,,0.48,Wunderground v.1.15,2013-06-22 12:55:00,
2013-06-22 09:00:00,73.3,70.8,30.13,South,171,11.0,11.0,92,0.00,,,0.48,Wunderground v.1.15,2013-06-22 13:00:00,
2013-06-22 09:10:00,73.2,70.7,30.13,SE,139,12.0,21.0,92,0.00,,,0.48,Wunderground v.1.15,2013-06-22 13:10:00,
2013-06-22 09:15:00,73.2,70.7,30.13,SSE,166,15.0,21.0,92,0.00,,,0.48,Wunderground v.1.15,2013-06-22 13:15:00,
2013-06-22 09:20:00,73.4,70.9,30.13,SSE,160,17.0,17.0,92,0.00,,,0.48,Wunderground v.1.15,2013-06-22 13:20:00,
2013-06-22 09:25:00,73.2,70.7,30.13,SSE,159,17.0,21.0,92,0.00,,,0.48,Wunderground v.1.15,2013-06-22 13:25:00,
2013-06-22 09:30:00,73.6,71.1,30.13,SE,143,15.0,15.0,92,0.00,,,0.48,Wunderground v.1.15,2013-06-22 13:30:00,
2013-06-22 09:40:00,72.5,70.0,30.14,South,188,16.0,16.0,92,0.00,,,0.48,Wunderground v.1.15,2013-06-22 13:40:00,
2013-06-22 09:45:00,72.6,70.1,30.14,South,183,14.0,21.0,92,0.00,,,0.48,Wunderground v.1.15,2013-06-22 13:45:00,
2013-06-22 09:50:00,72.2,69.7,30.14,SSE,158,14.0,21.0,92,0.00,,,0.49,Wunderground v.1.15,2013-06-22 13:50:00,
2013-06-22 09:55:00,72.4,69.9,30.14,SSW,210,15.0,21.0,92,0.08,,,0.50,Wunderground v.1.15,2013-06-22 13:55:00,
2013-06-22 10:00:00,72.4,70.3,30.14,SE,139,15.0,30.0,93,0.07,,,0.50,Wunderground v.1.15,2013-06-22 14:00:00,
2013-06-22 10:10:00,72.6,70.5,30.13,SE,138,14.0,30.0,93,0.00,,,0.50,Wunderground v.1.15,2013-06-22 14:10:00,
2013-06-22 10:15:00,72.6,70.5,30.13,SSE,158,13.0,30.0,93,0.00,,,0.50,Wunderground v.1.15,2013-06-22 14:15:00,
2013-06-22 10:20:00,72.6,70.5,30.13,South,173,11.0,11.0,93,0.00,,,0.50,Wunderground v.1.15,2013-06-22 14:20:00,
2013-06-22 10:25:00,72.9,70.8,30.13,SSE,156,10.0,30.0,93,0.00,,,0.50,Wunderground v.1.15,2013-06-22 14:25:00,
2013-06-22 10:30:00,72.8,70.7,30.13,SSE,160,10.0,10.0,93,0.00,,,0.50,Wunderground v.1.15,2013-06-22 14:30:00,
2013-06-22 10:35:00,73.1,71.0,30.13,South,176,10.0,30.0,93,0.00,,,0.50,Wunderground v.1.15,2013-06-22 14:35:00,
2013-06-22 10:40:00,73.4,71.3,30.13,SE,141,10.0,10.0,93,0.00,,,0.50,Wunderground v.1.15,2013-06-22 14:40:00,
2013-06-22 10:45:00,73.4,71.3,30.13,SSW,207,10.0,30.0,93,0.00,,,0.50,Wunderground v.1.15,2013-06-22 14:45:00,
2013-06-22 10:55:00,74.0,71.8,30.13,SSE,164,9.0,30.0,93,0.00,,,0.50,Wunderground v.1.15,2013-06-22 14:55:00,
2013-06-22 11:00:00,74.2,72.0,30.13,SE,131,10.0,10.0,93,0.00,,,0.50,Wunderground v.1.15,2013-06-22 15:00:00,
2013-06-22 11:10:00,74.7,72.2,30.13,SE,124,10.0,23.0,92,0.00,,,0.50,Wunderground v.1.15,2013-06-22 15:10:00,
2013-06-22 11:15:00,74.8,72.3,30.13,SSE,160,10.0,23.0,92,0.00,,,0.50,Wunderground v.1.15,2013-06-22 15:15:00,
2013-06-22 11:20:00,75.0,72.5,30.13,SSE,148,10.0,10.0,92,0.00,,,0.50,Wunderground v.1.15,2013-06-22 15:20:00,
2013-06-22 11:25:00,75.1,72.6,30.13,SSW,198,11.0,13.0,92,0.00,,,0.50,Wunderground v.1.15,2013-06-22 15:25:00,
2013-06-22 11:30:00,75.0,72.5,30.13,SW,229,12.0,12.0,92,0.00,,,0.50,Wunderground v.1.15,2013-06-22 15:30:00,
2013-06-22 11:35:00,75.1,72.6,30.13,SE,142,11.0,23.0,92,0.00,,,0.50,Wunderground v.1.15,2013-06-22 15:35:00,
2013-06-22 11:40:00,74.9,72.4,30.13,South,184,8.0,23.0,92,0.00,,,0.50,Wunderground v.1.15,2013-06-22 15:40:00,
2013-06-22 11:45:00,74.7,72.2,30.13,South,190,8.0,23.0,92,0.21,,,0.52,Wunderground v.1.15,2013-06-22 15:45:00,
2013-06-22 11:50:00,74.4,71.9,30.13,SE,132,10.0,23.0,92,0.55,,,0.62,Wunderground v.1.15,2013-06-22 15:50:00,
2013-06-22 11:55:00,74.1,71.6,30.13,SE,127,11.0,23.0,92,0.12,,,0.63,Wunderground v.1.15,2013-06-22 15:55:00,
2013-06-22 12:00:00,73.9,71.4,30.13,SE,144,12.0,20.0,92,0.06,,,0.63,Wunderground v.1.15,2013-06-22 16:00:00,
2013-06-22 12:05:00,73.8,71.3,30.13,SSE,166,12.0,20.0,92,0.04,,,0.63,Wunderground v.1.15,2013-06-22 16:05:00,
2013-06-22 12:10:00,74.1,71.9,30.13,SSE,148,11.0,20.0,93,0.00,,,0.63,Wunderground v.1.15,2013-06-22 16:10:00,
2013-06-22 12:15:00,74.4,72.2,30.13,NE,46,13.0,20.0,93,0.00,,,0.63,Wunderground v.1.15,2013-06-22 16:15:00,
2013-06-22 12:20:00,74.5,72.3,30.13,SE,141,16.0,24.0,93,0.00,,,0.63,Wunderground v.1.15,2013-06-22 16:20:00,
2013-06-22 12:25:00,73.8,71.3,30.13,SSE,158,17.0,26.0,92,0.00,,,0.63,Wunderground v.1.15,2013-06-22 16:25:00,
2013-06-22 12:30:00,73.4,70.9,30.13,South,173,19.0,20.0,92,0.00,,,0.63,Wunderground v.1.15,2013-06-22 16:30:00,
2013-06-22 12:35:00,73.4,70.9,30.13,South,173,20.0,20.0,92,0.00,,,0.63,Wunderground v.1.15,2013-06-22 16:35:00,
2013-06-22 12:40:00,73.8,71.6,30.13,SW,214,20.0,20.0,93,0.00,,,0.63,Wunderground v.1.15,2013-06-22 16:40:00,
2013-06-22 12:45:00,73.8,71.6,30.14,West,276,19.0,20.0,93,0.00,,,0.63,Wunderground v.1.15,2013-06-22 16:45:00,
2013-06-22 12:50:00,73.4,70.9,30.13,SSE,167,18.0,18.0,92,0.00,,,0.63,Wunderground v.1.15,2013-06-22 16:50:00,
2013-06-22 12:55:00,73.3,70.8,30.14,SW,236,17.0,20.0,92,0.00,,,0.63,Wunderground v.1.15,2013-06-22 16:55:00,
2013-06-22 13:00:00,73.5,71.0,30.14,WSW,240,15.0,32.0,92,0.00,,,0.63,Wunderground v.1.15,2013-06-22 17:00:00,
2013-06-22 13:05:00,73.6,71.1,30.14,West,279,14.0,32.0,92,0.00,,,0.63,Wunderground v.1.15,2013-06-22 17:05:00,
2013-06-22 13:10:00,73.9,71.7,30.14,South,186,12.0,12.0,93,0.00,,,0.63,Wunderground v.1.15,2013-06-22 17:10:00,
2013-06-22 13:15:00,74.3,72.1,30.14,SSE,168,11.0,32.0,93,0.00,,,0.63,Wunderground v.1.15,2013-06-22 17:15:00,
2013-06-22 13:20:00,74.9,72.7,30.14,WNW,297,11.0,11.0,93,0.00,,,0.63,Wunderground v.1.15,2013-06-22 17:20:00,
2013-06-22 13:25:00,75.1,72.9,30.14,SSE,166,10.0,32.0,93,0.00,,,0.63,Wunderground v.1.15,2013-06-22 17:25:00,
2013-06-22 13:30:00,75.8,73.6,30.14,NE,34,8.0,8.0,93,0.00,,,0.63,Wunderground v.1.15,2013-06-22 17:30:00,
2013-06-22 13:35:00,75.7,73.2,30.14,ESE,114,8.0,11.0,92,0.00,,,0.63,Wunderground v.1.15,2013-06-22 17:35:00,
2013-06-22 13:40:00,75.7,73.2,30.14,NE,36,10.0,32.0,92,0.00,,,0.63,Wunderground v.1.15,2013-06-22 17:40:00,
2013-06-22 13:45:00,75.9,73.4,30.14,North,9,11.0,32.0,92,0.00,,,0.63,Wunderground v.1.15,2013-06-22 17:45:00,
2013-06-22 13:50:00,75.7,73.2,30.14,ESE,110,10.0,32.0,92,0.00,,,0.63,Wunderground v.1.15,2013-06-22 17:50:00,
2013-06-22 13:55:00,75.7,73.2,30.14,ENE,76,11.0,32.0,92,0.00,,,0.63,Wunderground v.1.15,2013-06-22 17:55:00,
2013-06-22 14:00:00,75.7,73.2,30.14,North,358,11.0,11.0,92,0.00,,,0.63,Wunderground v.1.15,2013-06-22 18:00:00,
2013-06-22 14:05:00,75.9,73.4,30.14,SE,140,9.0,19.0,92,0.00,,,0.63,Wunderground v.1.15,2013-06-22 18:05:00,
2013-06-22 14:10:00,75.9,73.4,30.14,WNW,302,9.0,9.0,92,0.00,,,0.63,Wunderground v.1.15,2013-06-22 18:10:00,
2013-06-22 14:15:00,76.2,73.7,30.14,SSE,163,8.0,19.0,92,0.00,,,0.63,Wunderground v.1.15,2013-06-22 18:15:00,
2013-06-22 14:20:00,76.5,74.0,30.14,ENE,76,7.0,19.0,92,0.00,,,0.63,Wunderground v.1.15,2013-06-22 18:20:00,
2013-06-22 14:25:00,76.6,73.8,30.14,NNW,333,8.0,19.0,91,0.00,,,0.63,Wunderground v.1.15,2013-06-22 18:25:00,
2013-06-22 14:30:00,76.6,73.8,30.14,West,281,8.0,8.0,91,0.00,,,0.63,Wunderground v.1.15,2013-06-22 18:30:00,
2013-06-22 14:40:00,77.4,74.2,30.13,SSW,208,8.0,19.0,90,0.00,,,0.63,Wunderground v.1.15,2013-06-22 18:40:00,
2013-06-22 14:45:00,77.3,74.1,30.13,West,273,8.0,19.0,90,0.00,,,0.63,Wunderground v.1.15,2013-06-22 18:45:00,
2013-06-22 14:50:00,77.3,74.1,30.13,SSE,155,9.0,9.0,90,0.00,,,0.63,Wunderground v.1.15,2013-06-22 18:50:00,
2013-06-22 14:55:00,77.4,74.2,30.13,NE,51,9.0,19.0,90,0.00,,,0.63,Wunderground v.1.15,2013-06-22 18:55:00,
2013-06-22 15:00:00,77.5,74.0,30.13,NNE,22,8.0,8.0,89,0.00,,,0.63,Wunderground v.1.15,2013-06-22 19:00:00,
2013-06-22 15:05:00,78.2,74.4,30.13,WSW,241,8.0,17.0,88,0.00,,,0.63,Wunderground v.1.15,2013-06-22 19:05:00,
2013-06-22 15:10:00,78.6,74.1,30.13,North,358,7.0,7.0,86,0.00,,,0.63,Wunderground v.1.15,2013-06-22 19:10:00,
2013-06-22 15:15:00,78.7,74.2,30.13,NNE,30,6.0,17.0,86,0.00,,,0.63,Wunderground v.1.15,2013-06-22 19:15:00,
2013-06-22 15:20:00,78.9,74.4,30.12,NW,308,7.0,7.0,86,0.00,,,0.63,Wunderground v.1.15,2013-06-22 19:20:00,
2013-06-22 15:25:00,79.3,74.7,30.12,West,264,7.0,17.0,86,0.00,,,0.63,Wunderground v.1.15,2013-06-22 19:25:00,
2013-06-22 15:35:00,80.1,75.2,30.12,NE,43,6.0,17.0,85,0.00,,,0.63,Wunderground v.1.15,2013-06-22 19:35:00,
2013-06-22 15:40:00,80.2,74.9,30.12,SW,221,6.0,17.0,84,0.00,,,0.63,Wunderground v.1.15,2013-06-22 19:40:00,
2013-06-22 15:45:00,80.1,74.8,30.12,North,355,6.0,17.0,84,0.00,,,0.63,Wunderground v.1.15,2013-06-22 19:45:00,
2013-06-22 15:50:00,79.7,74.4,30.12,SW,215,6.0,17.0,84,0.00,,,0.63,Wunderground v.1.15,2013-06-22 19:50:00,
2013-06-22 15:55:00,79.6,74.7,30.12,NNE,17,6.0,17.0,85,0.00,,,0.63,Wunderground v.1.15,2013-06-22 19:55:00,
2013-06-22 16:00:00,79.7,74.4,30.12,West,264,5.0,15.0,84,0.00,,,0.63,Wunderground v.1.15,2013-06-22 20:00:00,
2013-06-22 16:05:00,79.6,74.3,30.12,NE,37,6.0,15.0,84,0.00,,,0.63,Wunderground v.1.15,2013-06-22 20:05:00,
2013-06-22 16:10:00,79.5,74.2,30.12,NE,51,6.0,6.0,84,0.00,,,0.63,Wunderground v.1.15,2013-06-22 20:10:00,
2013-06-22 16:15:00,79.5,74.2,30.12,North,350,6.0,15.0,84,0.00,,,0.63,Wunderground v.1.15,2013-06-22 20:15:00,
2013-06-22 16:20:00,79.5,74.2,30.12,NE,39,6.0,6.0,84,0.00,,,0.63,Wunderground v.1.15,2013-06-22 20:20:00,
2013-06-22 16:25:00,79.3,74.0,30.13,West,259,6.0,15.0,84,0.00,,,0.63,Wunderground v.1.15,2013-06-22 20:25:00,
2013-06-22 16:30:00,79.0,74.1,30.13,NE,36,5.0,5.0,85,0.00,,,0.63,Wunderground v.1.15,2013-06-22 20:30:00,
2013-06-22 16:35:00,78.8,73.9,30.13,ENE,74,6.0,6.0,85,0.00,,,0.63,Wunderground v.1.15,2013-06-22 20:35:00,
2013-06-22 16:40:00,78.6,74.1,30.13,NNE,23,6.0,6.0,86,0.00,,,0.63,Wunderground v.1.15,2013-06-22 20:40:00,
2013-06-22 16:50:00,78.9,74.4,30.13,ENE,63,5.0,15.0,86,0.00,,,0.63,Wunderground v.1.15,2013-06-22 20:50:00,
2013-06-22 16:55:00,78.8,74.3,30.13,NNE,27,5.0,15.0,86,0.00,,,0.63,Wunderground v.1.15,2013-06-22 20:55:00,
2013-06-22 17:00:00,78.7,74.2,30.13,WSW,239,6.0,6.0,86,0.00,,,0.63,Wunderground v.1.15,2013-06-22 21:00:00,
2013-06-22 17:10:00,78.8,74.3,30.12,SSE,153,6.0,13.0,86,0.00,,,0.63,Wunderground v.1.15,2013-06-22 21:10:00,
2013-06-22 17:15:00,78.6,74.1,30.12,NE,46,7.0,13.0,86,0.00,,,0.63,Wunderground v.1.15,2013-06-22 21:15:00,
2013-06-22 17:25:00,78.2,73.7,30.12,WSW,237,11.0,13.0,86,0.00,,,0.63,Wunderground v.1.15,2013-06-22 21:25:00,
2013-06-22 17:30:00,78.1,73.6,30.12,SW,233,12.0,17.0,86,0.00,,,0.63,Wunderground v.1.15,2013-06-22 21:30:00,
2013-06-22 17:35:00,78.2,73.7,30.12,North,11,12.0,17.0,86,0.00,,,0.63,Wunderground v.1.15,2013-06-22 21:35:00,
2013-06-22 17:40:00,78.6,74.1,30.12,SSW,197,12.0,12.0,86,0.00,,,0.63,Wunderground v.1.15,2013-06-22 21:40:00,
2013-06-22 17:45:00,78.6,74.1,30.11,SW,222,11.0,13.0,86,0.00,,,0.63,Wunderground v.1.15,2013-06-22 21:45:00,
2013-06-22 17:50:00,78.5,74.0,30.12,WSW,255,12.0,13.0,86,0.00,,,0.63,Wunderground v.1.15,2013-06-22 21:50:00,
2013-06-22 17:55:00,78.4,73.9,30.12,South,186,13.0,16.0,86,0.00,,,0.63,Wunderground v.1.15,2013-06-22 21:55:00,
2013-06-22 18:00:00,78.3,73.8,30.12,WSW,242,13.0,13.0,86,0.00,,,0.63,Wunderground v.1.15,2013-06-22 22:00:00,
2013-06-22 18:05:00,78.3,73.8,30.12,SW,218,13.0,18.0,86,0.00,,,0.63,Wunderground v.1.15,2013-06-22 22:05:00,
2013-06-22 18:10:00,78.2,73.7,30.12,SW,225,12.0,12.0,86,0.00,,,0.63,Wunderground v.1.15,2013-06-22 22:10:00,
2013-06-22 18:15:00,78.2,73.7,30.12,South,178,12.0,18.0,86,0.00,,,0.63,Wunderground v.1.15,2013-06-22 22:15:00,
2013-06-22 18:20:00,78.2,74.0,30.12,SSW,211,11.0,18.0,87,0.00,,,0.63,Wunderground v.1.15,2013-06-22 22:20:00,
2013-06-22 18:25:00,78.1,73.6,30.12,South,169,12.0,18.0,86,0.00,,,0.63,Wunderground v.1.15,2013-06-22 22:25:00,
2013-06-22 18:30:00,78.2,73.7,30.12,WNW,295,13.0,13.0,86,0.00,,,0.63,Wunderground v.1.15,2013-06-22 22:30:00,
2013-06-22 18:35:00,78.3,74.1,30.12,SSW,211,12.0,18.0,87,0.00,,,0.63,Wunderground v.1.15,2013-06-22 22:35:00,
2013-06-22 18:40:00,78.1,73.6,30.12,SSW,195,12.0,18.0,86,0.00,,,0.63,Wunderground v.1.15,2013-06-22 22:40:00,
2013-06-22 18:50:00,77.9,73.7,30.11,SSW,201,12.0,18.0,87,0.00,,,0.63,Wunderground v.1.15,2013-06-22 22:50:00,
2013-06-22 18:55:00,77.8,73.6,30.12,SSW,212,13.0,18.0,87,0.00,,,0.63,Wunderground v.1.15,2013-06-22 22:55:00,
2013-06-22 19:00:00,77.7,73.5,30.11,South,173,13.0,13.0,87,0.00,,,0.63,Wunderground v.1.15,2013-06-22 23:00:00,
2013-06-22 19:05:00,77.7,73.5,30.12,SSW,212,13.0,14.0,87,0.00,,,0.63,Wunderground v.1.15,2013-06-22 23:05:00,
2013-06-22 19:10:00,78.0,73.8,30.12,SW,217,12.0,12.0,87,0.00,,,0.63,Wunderground v.1.15,2013-06-22 23:10:00,
2013-06-22 19:15:00,78.4,73.9,30.12,South,184,9.0,19.0,86,0.00,,,0.63,Wunderground v.1.15,2013-06-22 23:15:00,
2013-06-22 19:20:00,78.6,74.1,30.12,SSW,211,8.0,8.0,86,0.00,,,0.63,Wunderground v.1.15,2013-06-22 23:20:00,
2013-06-22 19:25:00,78.7,74.2,30.11,WSW,250,8.0,19.0,86,0.00,,,0.63,Wunderground v.1.15,2013-06-22 23:25:00,
2013-06-22 19:30:00,78.8,73.9,30.11,SW,228,8.0,8.0,85,0.00,,,0.63,Wunderground v.1.15,2013-06-22 23:30:00,
2013-06-22 19:35:00,78.7,73.8,30.11,South,177,8.0,9.0,85,0.00,,,0.63,Wunderground v.1.15,2013-06-22 23:35:00,
2013-06-22 19:40:00,78.4,73.5,30.11,WSW,249,7.0,7.0,85,0.00,,,0.63,Wunderground v.1.15,2013-06-22 23:40:00,
2013-06-22 19:45:00,78.3,73.8,30.12,NNE,17,7.0,19.0,86,0.00,,,0.63,Wunderground v.1.15,2013-06-22 23:45:00,
2013-06-22 19:55:00,78.0,73.5,30.12,East,82,4.0,19.0,86,0.00,,,0.63,Wunderground v.1.15,2013-06-22 23:55:00,
2013-06-22 20:00:00,77.9,73.4,30.12,SW,236,4.0,18.0,86,0.00,,,0.63,Wunderground v.1.15,2013-06-23 00:00:00,
2013-06-22 20:05:00,77.6,73.4,30.12,SW,224,5.0,18.0,87,0.00,,,0.63,Wunderground v.1.15,2013-06-23 00:05:00,
2013-06-22 20:10:00,77.4,73.2,30.12,SSW,208,8.0,18.0,87,0.00,,,0.63,Wunderground v.1.15,2013-06-23 00:10:00,
2013-06-22 20:15:00,77.3,73.1,30.12,South,191,9.0,18.0,87,0.00,,,0.63,Wunderground v.1.15,2013-06-23 00:15:00,
2013-06-22 20:20:00,77.2,73.0,30.11,SW,215,10.0,18.0,87,0.00,,,0.63,Wunderground v.1.15,2013-06-23 00:20:00,
2013-06-22 20:25:00,77.3,73.1,30.11,SSW,199,11.0,18.0,87,0.00,,,0.63,Wunderground v.1.15,2013-06-23 00:25:00,
2013-06-22 20:30:00,77.2,73.0,30.11,SSE,167,11.0,18.0,87,0.00,,,0.63,Wunderground v.1.15,2013-06-23 00:30:00,
2013-06-22 20:35:00,77.1,72.9,30.12,South,181,11.0,18.0,87,0.00,,,0.63,Wunderground v.1.15,2013-06-23 00:35:00,
2013-06-22 20:40:00,77.0,72.8,30.12,South,179,12.0,12.0,87,0.00,,,0.63,Wunderground v.1.15,2013-06-23 00:40:00,
2013-06-22 20:45:00,77.0,72.8,30.12,SSW,207,12.0,13.0,87,0.00,,,0.63,Wunderground v.1.15,2013-06-23 00:45:00,
2013-06-22 20:50:00,77.0,72.8,30.12,South,189,12.0,18.0,87,0.00,,,0.63,Wunderground v.1.15,2013-06-23 00:50:00,
2013-06-22 20:55:00,77.0,72.8,30.12,SSW,205,12.0,18.0,87,0.00,,,0.63,Wunderground v.1.15,2013-06-23 00:55:00,
2013-06-22 21:00:00,77.0,72.8,30.12,South,191,12.0,12.0,87,0.00,,,0.63,Wunderground v.1.15,2013-06-23 01:00:00,
2013-06-22 21:10:00,77.0,72.5,30.13,SSW,208,11.0,11.0,86,0.00,,,0.63,Wunderground v.1.15,2013-06-23 01:10:00,
2013-06-22 21:15:00,77.0,72.8,30.13,SW,229,11.0,17.0,87,0.00,,,0.63,Wunderground v.1.15,2013-06-23 01:15:00,
2013-06-22 21:20:00,77.0,72.5,30.13,SW,227,10.0,10.0,86,0.00,,,0.63,Wunderground v.1.15,2013-06-23 01:20:00,
2013-06-22 21:25:00,77.1,72.6,30.13,SW,232,9.0,17.0,86,0.00,,,0.63,Wunderground v.1.15,2013-06-23 01:25:00,
2013-06-22 21:30:00,77.1,72.6,30.13,East,100,9.0,17.0,86,0.00,,,0.63,Wunderground v.1.15,2013-06-23 01:30:00,
2013-06-22 21:35:00,77.2,72.7,30.13,South,188,10.0,17.0,86,0.00,,,0.63,Wunderground v.1.15,2013-06-23 01:35:00,
2013-06-22 21:40:00,77.2,73.0,30.13,SSW,199,10.0,10.0,87,0.00,,,0.63,Wunderground v.1.15,2013-06-23 01:40:00,
2013-06-22 21:45:00,77.2,73.0,30.13,SW,215,9.0,17.0,87,0.00,,,0.63,Wunderground v.1.15,2013-06-23 01:45:00,
2013-06-22 21:50:00,77.2,73.0,30.13,South,179,9.0,17.0,87,0.00,,,0.63,Wunderground v.1.15,2013-06-23 01:50:00,
2013-06-22 21:55:00,77.3,73.5,30.13,SSW,210,10.0,17.0,88,0.00,,,0.63,Wunderground v.1.15,2013-06-23 01:55:00,
2013-06-22 22:00:00,77.3,73.5,30.13,WSW,243,9.0,16.0,88,0.00,,,0.63,Wunderground v.1.15,2013-06-23 02:00:00,
2013-06-22 22:05:00,77.2,73.4,30.14,SSW,205,9.0,16.0,88,0.00,,,0.63,Wunderground v.1.15,2013-06-23 02:05:00,
2013-06-22 22:10:00,77.2,73.4,30.13,SW,214,8.0,16.0,88,0.00,,,0.63,Wunderground v.1.15,2013-06-23 02:10:00,
2013-06-22 22:15:00,77.3,73.5,30.14,SW,233,8.0,16.0,88,0.00,,,0.63,Wunderground v.1.15,2013-06-23 02:15:00,
2013-06-22 22:20:00,77.3,73.5,30.14,SSE,168,8.0,8.0,88,0.00,,,0.63,Wunderground v.1.15,2013-06-23 02:20:00,
2013-06-22 22:25:00,77.3,73.5,30.14,WSW,243,10.0,11.0,88,0.00,,,0.63,Wunderground v.1.15,2013-06-23 02:25:00,
2013-06-22 22:30:00,77.3,73.1,30.13,South,188,10.0,16.0,87,0.00,,,0.63,Wunderground v.1.15,2013-06-23 02:30:00,
2013-06-22 22:35:00,77.4,73.2,30.14,South,191,10.0,16.0,87,0.00,,,0.63,Wunderground v.1.15,2013-06-23 02:35:00,
2013-06-22 22:40:00,77.5,73.3,30.14,SSW,212,11.0,16.0,87,0.00,,,0.63,Wunderground v.1.15,2013-06-23 02:40:00,
2013-06-22 22:45:00,77.5,73.3,30.14,West,267,12.0,16.0,87,0.00,,,0.63,Wunderground v.1.15,2013-06-23 02:45:00,
2013-06-22 22:55:00,77.5,73.3,30.14,SSW,198,11.0,16.0,87,0.00,,,0.63,Wunderground v.1.15,2013-06-23 02:55:00,
2013-06-22 23:00:00,77.5,73.3,30.15,SSE,163,9.0,9.0,87,0.00,,,0.63,Wunderground v.1.15,2013-06-23 03:00:00,
2013-06-22 23:05:00,77.5,73.3,30.15,NW,314,8.0,17.0,87,0.00,,,0.63,Wunderground v.1.15,2013-06-23 03:05:00,
2013-06-22 23:10:00,77.5,73.3,30.15,WSW,256,9.0,9.0,87,0.00,,,0.63,Wunderground v.1.15,2013-06-23 03:10:00,
2013-06-22 23:15:00,77.5,73.3,30.15,SSW,205,7.0,17.0,87,0.00,,,0.63,Wunderground v.1.15,2013-06-23 03:15:00,
2013-06-22 23:20:00,77.5,73.3,30.15,SSW,197,7.0,17.0,87,0.00,,,0.63,Wunderground v.1.15,2013-06-23 03:20:00,
2013-06-22 23:25:00,77.5,73.3,30.15,WNW,291,6.0,17.0,87,0.00,,,0.63,Wunderground v.1.15,2013-06-23 03:25:00,
2013-06-22 23:30:00,77.5,73.3,30.15,SSW,207,7.0,17.0,87,0.00,,,0.63,Wunderground v.1.15,2013-06-23 03:30:00,
2013-06-22 23:35:00,77.5,73.3,30.15,West,262,8.0,17.0,87,0.00,,,0.63,Wunderground v.1.15,2013-06-23 03:35:00,
2013-06-22 23:40:00,77.5,73.3,30.16,NNW,327,7.0,7.0,87,0.00,,,0.63,Wunderground v.1.15,2013-06-23 03:40:00,
2013-06-22 23:45:00,77.5,73.3,30.15,NNE,18,6.0,17.0,87,0.00,,,0.63,Wunderground v.1.15,2013-06-23 03:45:00,
2013-06-22 23:50:00,77.5,73.3,30.15,SSE,163,6.0,17.0,87,0.00,,,0.63,Wunderground v.1.15,2013-06-23 03:50:00,
2013-06-22 23:55:00,77.5,73.3,30.16,SSW,208,7.0,17.0,87,0.00,,,0.63,Wunderground v.1.15,2013-06-23 03:55:00,